Delta Fantasy — WDF8698 — position and weather

sailwx.info

Track history (hours):
 
Tides and Currents Weather Stations Pressure Air Temp Water Temp Dewpoint Dewpoint Depression Visibility Wind Speed Wind Dir Waves Ship Positions

Delta Fantasy

Owner: Crosby Marine Transportation LLC, Golden Meadow, LA. More information available from US FCC via Universal Licensing System and Coast Guard Vessel Documentation Center.

Last reported at 2017-Sep-19 20:30 UTC. Time now 2017-Sep-19 20:29 UTC.
Position N 40°38' W 074°12'.

Length 32 m; draft 4 m.

Type: Tug. MMSI: 367497610.

Date/timePositionNaut miles runAvg speedWind from/ knotsBaromVisibWave heightAir tempDewpointWater temp
2017-Sep-19 20:30N 40°38' W 074°12'3 0.2
2017-Sep-19 01:12N 40°35' W 074°13'3 5.9
2017-Sep-19 00:41N 40°33' W 074°15'0 1.2
2017-Sep-19 00:22N 40°33' W 074°15'0 0.0
2017-Sep-18 23:57N 40°33' W 074°15'0 0.0
2017-Sep-18 22:36N 40°33' W 074°15'0 0.1
2017-Sep-18 22:30N 40°33' W 074°15'0 0.0
2017-Sep-18 19:01N 40°33' W 074°15'0 0.0
2017-Sep-18 18:59N 40°33' W 074°15'0 0.0
2017-Sep-18 18:27N 40°33' W 074°15'0 0.0
2017-Sep-18 05:19N 40°33' W 074°15'3 8.3
2017-Sep-18 04:58N 40°35' W 074°13'4 8.5
2017-Sep-18 04:29N 40°39' W 074°10'4 8.1
2017-Sep-18 04:00N 40°39' W 074°05'5 9.4
2017-Sep-18 03:31N 40°42' W 074°00'611.3
2017-Sep-18 02:59N 40°47' W 073°56'5 9.4
2017-Sep-18 02:30N 40°48' W 073°51'4 0.2
2017-Sep-17 10:18N 40°50' W 073°46'4 6.7
2017-Sep-17 09:46N 40°48' W 073°50'3 9.9
2017-Sep-17 09:27N 40°48' W 073°54'410.1
2017-Sep-17 09:00N 40°44' W 073°58'5 9.1
2017-Sep-17 08:30N 40°41' W 074°02'4 7.5
2017-Sep-17 08:00N 40°39' W 074°06'3 6.9
2017-Sep-17 07:31N 40°39' W 074°10'2 3.5
2017-Sep-17 07:00N 40°38' W 074°12'0 0.0
2017-Sep-17 06:27N 40°38' W 074°12'0 0.0
2017-Sep-17 05:58N 40°38' W 074°12'0 0.0
2017-Sep-17 05:30N 40°38' W 074°12'0 0.0
2017-Sep-17 04:59N 40°38' W 074°12'0 0.0
2017-Sep-17 04:30N 40°38' W 074°12'0 0.0
2017-Sep-17 04:00N 40°38' W 074°12'0 0.0
2017-Sep-17 03:29N 40°38' W 074°12'0 0.0
2017-Sep-17 02:58N 40°38' W 074°12'0 0.0
2017-Sep-17 02:30N 40°38' W 074°12'0 0.0
2017-Sep-17 02:00N 40°38' W 074°12'0 0.0
2017-Sep-17 01:29N 40°38' W 074°12'0 0.0
2017-Sep-17 00:57N 40°38' W 074°12'0 0.0
2017-Sep-17 00:29N 40°38' W 074°12'0 0.0
2017-Sep-16 23:58N 40°38' W 074°12'0 0.0
2017-Sep-16 23:30N 40°38' W 074°12'0 0.0
2017-Sep-16 22:50N 40°38' W 074°12'0 0.0
2017-Sep-16 22:29N 40°38' W 074°12'0 0.0
2017-Sep-16 21:57N 40°38' W 074°12'0 0.0
2017-Sep-16 18:28N 40°38' W 074°12'0 0.0
2017-Sep-16 17:59N 40°38' W 074°12'0 0.0
2017-Sep-16 17:30N 40°38' W 074°12'5 6.3
2017-Sep-16 16:47N 40°33' W 074°14'1 1.9
2017-Sep-16 16:30N 40°33' W 074°15'1 0.0
2017-Sep-16 03:26N 40°32' W 074°15'0 0.6
2017-Sep-16 02:55N 40°33' W 074°15'3 7.9
2017-Sep-16 02:29N 40°35' W 074°12'4 7.6
2017-Sep-16 02:00N 40°39' W 074°10'4 7.9
2017-Sep-16 01:30N 40°39' W 074°05'4 8.8
2017-Sep-16 01:00N 40°41' W 074°01'5 9.6
2017-Sep-16 00:30N 40°46' W 073°57'4 8.6
2017-Sep-16 00:00N 40°48' W 073°53'5 0.3
2017-Sep-15 07:25N 40°50' W 073°46'3 6.8
2017-Sep-15 07:00N 40°48' W 073°49'5 9.2
2017-Sep-15 06:30N 40°47' W 073°55'4 8.9
2017-Sep-15 06:00N 40°43' W 073°58'4 8.9
2017-Sep-15 05:30N 40°40' W 074°03'3 6.2
2017-Sep-15 05:00N 40°39' W 074°06'3 6.6
2017-Sep-15 04:30N 40°39' W 074°11'2 3.5
2017-Sep-15 04:00N 40°38' W 074°12'0 0.0
2017-Sep-15 03:30N 40°38' W 074°12'0 0.0
2017-Sep-15 03:00N 40°38' W 074°12'0 0.0
2017-Sep-15 02:28N 40°38' W 074°12'0 0.0
2017-Sep-15 02:00N 40°38' W 074°12'0 0.0
2017-Sep-15 01:30N 40°38' W 074°12'0 0.0
2017-Sep-15 01:00N 40°38' W 074°12'0 0.0
2017-Sep-15 00:30N 40°38' W 074°12'0 0.0
2017-Sep-15 00:00N 40°38' W 074°12'0 0.0
2017-Sep-14 23:30N 40°38' W 074°12'0 0.0
2017-Sep-14 22:59N 40°38' W 074°12'0 0.0
2017-Sep-14 22:30N 40°38' W 074°12'0 0.0
2017-Sep-14 22:00N 40°38' W 074°12'0 0.0
2017-Sep-14 21:28N 40°38' W 074°12'0 0.0
2017-Sep-14 20:58N 40°38' W 074°12'0 0.0
2017-Sep-14 20:30N 40°38' W 074°12'0 0.0
2017-Sep-14 19:49N 40°38' W 074°12'0 0.0
2017-Sep-14 19:28N 40°38' W 074°12'0 0.0
2017-Sep-14 19:00N 40°38' W 074°12'0 0.0
2017-Sep-14 18:29N 40°38' W 074°12'0 0.0
2017-Sep-14 18:00N 40°38' W 074°12'0 0.0
2017-Sep-14 17:24N 40°38' W 074°12'0 0.0
2017-Sep-14 16:58N 40°38' W 074°12'0 0.0
2017-Sep-14 16:20N 40°38' W 074°12'0 0.0
2017-Sep-14 15:51N 40°38' W 074°12'0 0.0
2017-Sep-14 15:23N 40°38' W 074°12'4 5.5
2017-Sep-14 14:43N 40°34' W 074°13'2 3.3
2017-Sep-14 14:10N 40°33' W 074°15'1 0.7
2017-Sep-14 12:41N 40°32' W 074°15'0 0.0
2017-Sep-14 12:22N 40°32' W 074°15'0 0.0
2017-Sep-13 14:18N 40°32' W 074°15'0 0.0
2017-Sep-13 13:46N 40°32' W 074°15'0 0.0
2017-Sep-13 13:29N 40°32' W 074°15'0 0.0
2017-Sep-13 13:00N 40°32' W 074°15'0 0.0
2017-Sep-13 12:29N 40°32' W 074°15'0 0.0
2017-Sep-13 11:57N 40°32' W 074°15'0 0.0
2017-Sep-13 11:30N 40°32' W 074°15'0 0.0
2017-Sep-13 10:59N 40°32' W 074°15'0 0.0
2017-Sep-13 10:19N 40°32' W 074°15'0 0.0
2017-Sep-13 10:00N 40°32' W 074°15'0 0.0
2017-Sep-13 09:22N 40°32' W 074°15'0 0.0
2017-Sep-13 08:45N 40°32' W 074°15'0 0.0
2017-Sep-13 08:18N 40°32' W 074°15'0 0.0
2017-Sep-13 08:00N 40°32' W 074°15'0 0.0
2017-Sep-13 07:29N 40°32' W 074°15'0 0.0
2017-Sep-13 07:00N 40°32' W 074°15'0 0.0
2017-Sep-13 06:30N 40°32' W 074°15'0 0.0
2017-Sep-13 06:00N 40°32' W 074°15'0 0.0
2017-Sep-13 05:30N 40°32' W 074°15'0 0.0
2017-Sep-13 03:49N 40°32' W 074°15'0 0.0
2017-Sep-13 03:27N 40°32' W 074°15'0 0.0
2017-Sep-13 02:57N 40°32' W 074°15'0 0.0
2017-Sep-13 02:26N 40°32' W 074°15'0 0.0
2017-Sep-12 16:53N 40°32' W 074°15'7 4.1
2017-Sep-12 15:09N 40°30' W 074°06'2 9.7
2017-Sep-12 14:58N 40°30' W 074°04'4 8.0
2017-Sep-12 14:29N 40°33' W 074°02'4 8.1
2017-Sep-12 14:00N 40°34' W 073°57'3 6.7
2017-Sep-12 13:30N 40°35' W 073°52'6 6.2
2017-Sep-12 12:30N 40°38' W 073°45'0 0.7
2017-Sep-12 12:00N 40°38' W 073°45'0 0.0
2017-Sep-12 11:29N 40°38' W 073°45'0 0.0
2017-Sep-12 10:59N 40°38' W 073°45'0 0.0
2017-Sep-12 10:16N 40°38' W 073°45'0 0.0
2017-Sep-12 09:59N 40°38' W 073°45'0 0.0
2017-Sep-12 09:29N 40°38' W 073°45'0 0.0
2017-Sep-12 09:00N 40°38' W 073°45'0 0.0
2017-Sep-12 08:27N 40°38' W 073°45'0 0.0
2017-Sep-12 08:00N 40°38' W 073°45'0 0.0
2017-Sep-12 07:26N 40°38' W 073°45'0 0.0
2017-Sep-12 07:00N 40°38' W 073°45'0 0.0
2017-Sep-12 06:30N 40°38' W 073°45'0 0.0
2017-Sep-12 06:00N 40°38' W 073°45'0 0.0
2017-Sep-12 05:29N 40°38' W 073°45'0 0.0
2017-Sep-12 05:00N 40°38' W 073°45'0 0.0
2017-Sep-12 04:30N 40°38' W 073°45'0 0.0
2017-Sep-12 04:00N 40°38' W 073°45'0 0.0
2017-Sep-12 03:30N 40°38' W 073°45'1 2.0
2017-Sep-12 03:00N 40°37' W 073°46'3 6.2
2017-Sep-12 02:28N 40°35' W 073°50'3 6.2
2017-Sep-12 02:00N 40°34' W 073°53'4 7.3
2017-Sep-12 01:30N 40°34' W 073°58'3 6.8
2017-Sep-12 01:00N 40°35' W 074°02'4 8.3
2017-Sep-12 00:30N 40°39' W 074°03'510.0
2017-Sep-12 00:00N 40°44' W 074°01'510.8
2017-Sep-11 23:30N 40°49' W 073°58'8 0.2
2017-Sep-09 20:35N 40°57' W 073°54'  
Track history (hours):
 
Tides and Currents Weather Stations Pressure Air Temp Water Temp Dewpoint Dewpoint Depression Visibility Wind Speed Wind Dir Waves Ship Positions

Delta Fantasy

Owner: Crosby Marine Transportation LLC, Golden Meadow, LA. More information available from US FCC via Universal Licensing System and Coast Guard Vessel Documentation Center.

Last reported at 2017-Sep-19 20:30 UTC. Time now 2017-Sep-19 20:29 UTC.
Position N 40°38' W 074°12'.

Length 32 m; draft 4 m.

Type: Tug. MMSI: 367497610.

Date/timePositionNaut miles runAvg speedWind from/ knotsBaromVisibWave heightAir tempDewpointWater temp
2017-Sep-19 20:30N 40°38' W 074°12'3 0.2
2017-Sep-19 01:12N 40°35' W 074°13'3 5.9
2017-Sep-19 00:41N 40°33' W 074°15'0 1.2
2017-Sep-19 00:22N 40°33' W 074°15'0 0.0
2017-Sep-18 23:57N 40°33' W 074°15'0 0.0
2017-Sep-18 22:36N 40°33' W 074°15'0 0.1
2017-Sep-18 22:30N 40°33' W 074°15'0 0.0
2017-Sep-18 19:01N 40°33' W 074°15'0 0.0
2017-Sep-18 18:59N 40°33' W 074°15'0 0.0
2017-Sep-18 18:27N 40°33' W 074°15'0 0.0
2017-Sep-18 05:19N 40°33' W 074°15'3 8.3
2017-Sep-18 04:58N 40°35' W 074°13'4 8.5
2017-Sep-18 04:29N 40°39' W 074°10'4 8.1
2017-Sep-18 04:00N 40°39' W 074°05'5 9.4
2017-Sep-18 03:31N 40°42' W 074°00'611.3
2017-Sep-18 02:59N 40°47' W 073°56'5 9.4
2017-Sep-18 02:30N 40°48' W 073°51'4 0.2
2017-Sep-17 10:18N 40°50' W 073°46'4 6.7
2017-Sep-17 09:46N 40°48' W 073°50'3 9.9
2017-Sep-17 09:27N 40°48' W 073°54'410.1
2017-Sep-17 09:00N 40°44' W 073°58'5 9.1
2017-Sep-17 08:30N 40°41' W 074°02'4 7.5
2017-Sep-17 08:00N 40°39' W 074°06'3 6.9
2017-Sep-17 07:31N 40°39' W 074°10'2 3.5
2017-Sep-17 07:00N 40°38' W 074°12'0 0.0
2017-Sep-17 06:27N 40°38' W 074°12'0 0.0
2017-Sep-17 05:58N 40°38' W 074°12'0 0.0
2017-Sep-17 05:30N 40°38' W 074°12'0 0.0
2017-Sep-17 04:59N 40°38' W 074°12'0 0.0
2017-Sep-17 04:30N 40°38' W 074°12'0 0.0
2017-Sep-17 04:00N 40°38' W 074°12'0 0.0
2017-Sep-17 03:29N 40°38' W 074°12'0 0.0
2017-Sep-17 02:58N 40°38' W 074°12'0 0.0
2017-Sep-17 02:30N 40°38' W 074°12'0 0.0
2017-Sep-17 02:00N 40°38' W 074°12'0 0.0
2017-Sep-17 01:29N 40°38' W 074°12'0 0.0
2017-Sep-17 00:57N 40°38' W 074°12'0 0.0
2017-Sep-17 00:29N 40°38' W 074°12'0 0.0
2017-Sep-16 23:58N 40°38' W 074°12'0 0.0
2017-Sep-16 23:30N 40°38' W 074°12'0 0.0
2017-Sep-16 22:50N 40°38' W 074°12'0 0.0
2017-Sep-16 22:29N 40°38' W 074°12'0 0.0
2017-Sep-16 21:57N 40°38' W 074°12'0 0.0
2017-Sep-16 18:28N 40°38' W 074°12'0 0.0
2017-Sep-16 17:59N 40°38' W 074°12'0 0.0
2017-Sep-16 17:30N 40°38' W 074°12'5 6.3
2017-Sep-16 16:47N 40°33' W 074°14'1 1.9
2017-Sep-16 16:30N 40°33' W 074°15'1 0.0
2017-Sep-16 03:26N 40°32' W 074°15'0 0.6
2017-Sep-16 02:55N 40°33' W 074°15'3 7.9
2017-Sep-16 02:29N 40°35' W 074°12'4 7.6
2017-Sep-16 02:00N 40°39' W 074°10'4 7.9
2017-Sep-16 01:30N 40°39' W 074°05'4 8.8
2017-Sep-16 01:00N 40°41' W 074°01'5 9.6
2017-Sep-16 00:30N 40°46' W 073°57'4 8.6
2017-Sep-16 00:00N 40°48' W 073°53'5 0.3
2017-Sep-15 07:25N 40°50' W 073°46'3 6.8
2017-Sep-15 07:00N 40°48' W 073°49'5 9.2
2017-Sep-15 06:30N 40°47' W 073°55'4 8.9
2017-Sep-15 06:00N 40°43' W 073°58'4 8.9
2017-Sep-15 05:30N 40°40' W 074°03'3 6.2
2017-Sep-15 05:00N 40°39' W 074°06'3 6.6
2017-Sep-15 04:30N 40°39' W 074°11'2 3.5
2017-Sep-15 04:00N 40°38' W 074°12'0 0.0
2017-Sep-15 03:30N 40°38' W 074°12'0 0.0
2017-Sep-15 03:00N 40°38' W 074°12'0 0.0
2017-Sep-15 02:28N 40°38' W 074°12'0 0.0
2017-Sep-15 02:00N 40°38' W 074°12'0 0.0
2017-Sep-15 01:30N 40°38' W 074°12'0 0.0
2017-Sep-15 01:00N 40°38' W 074°12'0 0.0
2017-Sep-15 00:30N 40°38' W 074°12'0 0.0
2017-Sep-15 00:00N 40°38' W 074°12'0 0.0
2017-Sep-14 23:30N 40°38' W 074°12'0 0.0
2017-Sep-14 22:59N 40°38' W 074°12'0 0.0
2017-Sep-14 22:30N 40°38' W 074°12'0 0.0
2017-Sep-14 22:00N 40°38' W 074°12'0 0.0
2017-Sep-14 21:28N 40°38' W 074°12'0 0.0
2017-Sep-14 20:58N 40°38' W 074°12'0 0.0
2017-Sep-14 20:30N 40°38' W 074°12'0 0.0
2017-Sep-14 19:49N 40°38' W 074°12'0 0.0
2017-Sep-14 19:28N 40°38' W 074°12'0 0.0
2017-Sep-14 19:00N 40°38' W 074°12'0 0.0
2017-Sep-14 18:29N 40°38' W 074°12'0 0.0
2017-Sep-14 18:00N 40°38' W 074°12'0 0.0
2017-Sep-14 17:24N 40°38' W 074°12'0 0.0
2017-Sep-14 16:58N 40°38' W 074°12'0 0.0
2017-Sep-14 16:20N 40°38' W 074°12'0 0.0
2017-Sep-14 15:51N 40°38' W 074°12'0 0.0
2017-Sep-14 15:23N 40°38' W 074°12'4 5.5
2017-Sep-14 14:43N 40°34' W 074°13'2 3.3
2017-Sep-14 14:10N 40°33' W 074°15'1 0.7
2017-Sep-14 12:41N 40°32' W 074°15'0 0.0
2017-Sep-14 12:22N 40°32' W 074°15'0 0.0
2017-Sep-13 14:18N 40°32' W 074°15'0 0.0
2017-Sep-13 13:46N 40°32' W 074°15'0 0.0
2017-Sep-13 13:29N 40°32' W 074°15'0 0.0
2017-Sep-13 13:00N 40°32' W 074°15'0 0.0
2017-Sep-13 12:29N 40°32' W 074°15'0 0.0
2017-Sep-13 11:57N 40°32' W 074°15'0 0.0
2017-Sep-13 11:30N 40°32' W 074°15'0 0.0
2017-Sep-13 10:59N 40°32' W 074°15'0 0.0
2017-Sep-13 10:19N 40°32' W 074°15'0 0.0
2017-Sep-13 10:00N 40°32' W 074°15'0 0.0
2017-Sep-13 09:22N 40°32' W 074°15'0 0.0
2017-Sep-13 08:45N 40°32' W 074°15'0 0.0
2017-Sep-13 08:18N 40°32' W 074°15'0 0.0
2017-Sep-13 08:00N 40°32' W 074°15'0 0.0
2017-Sep-13 07:29N 40°32' W 074°15'0 0.0
2017-Sep-13 07:00N 40°32' W 074°15'0 0.0
2017-Sep-13 06:30N 40°32' W 074°15'0 0.0
2017-Sep-13 06:00N 40°32' W 074°15'0 0.0
2017-Sep-13 05:30N 40°32' W 074°15'0 0.0
2017-Sep-13 03:49N 40°32' W 074°15'0 0.0
2017-Sep-13 03:27N 40°32' W 074°15'0 0.0
2017-Sep-13 02:57N 40°32' W 074°15'0 0.0
2017-Sep-13 02:26N 40°32' W 074°15'0 0.0
2017-Sep-12 16:53N 40°32' W 074°15'7 4.1
2017-Sep-12 15:09N 40°30' W 074°06'2 9.7
2017-Sep-12 14:58N 40°30' W 074°04'4 8.0
2017-Sep-12 14:29N 40°33' W 074°02'4 8.1
2017-Sep-12 14:00N 40°34' W 073°57'3 6.7
2017-Sep-12 13:30N 40°35' W 073°52'6 6.2
2017-Sep-12 12:30N 40°38' W 073°45'0 0.7
2017-Sep-12 12:00N 40°38' W 073°45'0 0.0
2017-Sep-12 11:29N 40°38' W 073°45'0 0.0
2017-Sep-12 10:59N 40°38' W 073°45'0 0.0
2017-Sep-12 10:16N 40°38' W 073°45'0 0.0
2017-Sep-12 09:59N 40°38' W 073°45'0 0.0
2017-Sep-12 09:29N 40°38' W 073°45'0 0.0
2017-Sep-12 09:00N 40°38' W 073°45'0 0.0
2017-Sep-12 08:27N 40°38' W 073°45'0 0.0
2017-Sep-12 08:00N 40°38' W 073°45'0 0.0
2017-Sep-12 07:26N 40°38' W 073°45'0 0.0
2017-Sep-12 07:00N 40°38' W 073°45'0 0.0
2017-Sep-12 06:30N 40°38' W 073°45'0 0.0
2017-Sep-12 06:00N 40°38' W 073°45'0 0.0
2017-Sep-12 05:29N 40°38' W 073°45'0 0.0
2017-Sep-12 05:00N 40°38' W 073°45'0 0.0
2017-Sep-12 04:30N 40°38' W 073°45'0 0.0
2017-Sep-12 04:00N 40°38' W 073°45'0 0.0
2017-Sep-12 03:30N 40°38' W 073°45'1 2.0
2017-Sep-12 03:00N 40°37' W 073°46'3 6.2
2017-Sep-12 02:28N 40°35' W 073°50'3 6.2
2017-Sep-12 02:00N 40°34' W 073°53'4 7.3
2017-Sep-12 01:30N 40°34' W 073°58'3 6.8
2017-Sep-12 01:00N 40°35' W 074°02'4 8.3
2017-Sep-12 00:30N 40°39' W 074°03'510.0
2017-Sep-12 00:00N 40°44' W 074°01'510.8
2017-Sep-11 23:30N 40°49' W 073°58'8 0.2
2017-Sep-09 20:35N 40°57' W 073°54'  

Dump ship's entire track history